createdAt,value
2023-05-10T00:00:56.574Z,13.43
2023-05-10T00:01:56.646Z,13.36
2023-05-10T00:02:56.673Z,13.62
2023-05-10T00:03:56.645Z,13.68
2023-05-10T00:04:56.626Z,13.50
2023-05-10T00:05:56.585Z,13.86
2023-05-10T00:06:56.598Z,13.36
2023-05-10T00:07:56.594Z,13.73
2023-05-10T00:08:56.601Z,13.73
2023-05-10T00:09:56.585Z,13.53
2023-05-10T00:10:56.580Z,13.70
2023-05-10T00:11:56.588Z,13.55
2023-05-10T00:12:56.604Z,13.42
2023-05-10T00:13:56.588Z,13.18
2023-05-10T00:14:56.599Z,13.66
2023-05-10T00:15:56.579Z,13.62
2023-05-10T00:16:56.690Z,13.52
2023-05-10T00:17:56.628Z,14.08
2023-05-10T00:18:56.589Z,14.56
2023-05-10T00:19:56.594Z,14.89
2023-05-10T00:20:56.575Z,15.34
2023-05-10T00:21:56.567Z,15.72
2023-05-10T00:22:56.554Z,15.40
2023-05-10T00:23:56.560Z,14.96
2023-05-10T00:24:56.566Z,15.10
2023-05-10T00:25:56.591Z,15.46
2023-05-10T00:26:56.587Z,15.69
2023-05-10T00:27:56.609Z,15.10
2023-05-10T00:28:56.602Z,15.37
2023-05-10T00:29:56.580Z,15.30
2023-05-10T00:30:56.611Z,14.90
2023-05-10T00:31:56.618Z,14.89
2023-05-10T00:32:56.593Z,14.98
2023-05-10T00:33:56.642Z,14.99
2023-05-10T00:34:56.569Z,15.06
2023-05-10T00:35:56.614Z,15.28
2023-05-10T00:36:56.594Z,14.99
2023-05-10T00:37:56.588Z,15.25
2023-05-10T00:38:56.620Z,14.79
2023-05-10T00:39:56.590Z,15.11
2023-05-10T00:40:56.595Z,15.56
2023-05-10T00:41:56.630Z,15.91
2023-05-10T00:42:56.596Z,15.93
2023-05-10T00:43:56.603Z,15.43
2023-05-10T00:44:56.590Z,15.48
2023-05-10T00:45:56.652Z,15.30
2023-05-10T00:46:56.575Z,15.64
2023-05-10T00:47:56.640Z,15.25
2023-05-10T00:48:56.612Z,15.32
2023-05-10T00:49:56.592Z,15.52
2023-05-10T00:50:56.612Z,15.42
2023-05-10T00:51:56.589Z,15.62
2023-05-10T00:52:56.597Z,15.28
2023-05-10T00:53:56.605Z,15.41
2023-05-10T00:54:56.599Z,15.12
2023-05-10T00:55:56.601Z,15.19
2023-05-10T00:56:56.605Z,15.31
2023-05-10T00:57:56.618Z,15.53
2023-05-10T00:58:56.593Z,15.97
2023-05-10T00:59:56.606Z,15.38
2023-05-10T01:00:56.603Z,15.56
2023-05-10T01:01:56.578Z,15.20
2023-05-10T01:02:56.696Z,14.96
2023-05-10T01:03:56.588Z,15.45
2023-05-10T01:04:56.602Z,15.22
2023-05-10T01:05:56.603Z,15.24
2023-05-10T01:06:56.601Z,15.11
2023-05-10T01:07:56.587Z,15.24
2023-05-10T01:08:56.578Z,15.56
2023-05-10T01:09:56.606Z,15.26
2023-05-10T01:10:56.594Z,15.16
2023-05-10T01:11:56.607Z,15.12
2023-05-10T01:12:56.607Z,15.48
2023-05-10T01:13:56.574Z,15.16
2023-05-10T01:14:56.574Z,15.24
2023-05-10T01:15:56.616Z,15.25
2023-05-10T01:16:56.567Z,15.27
2023-05-10T01:17:56.613Z,15.11
2023-05-10T01:18:56.561Z,15.22
2023-05-10T01:19:56.575Z,15.15
2023-05-10T01:20:56.571Z,15.49
2023-05-10T01:21:56.544Z,15.70
2023-05-10T01:22:56.576Z,15.92
2023-05-10T01:23:56.556Z,15.62
2023-05-10T01:24:56.589Z,15.79
2023-05-10T01:25:56.603Z,15.84
2023-05-10T01:26:56.561Z,15.84
2023-05-10T01:27:56.580Z,15.63
2023-05-10T01:28:56.546Z,15.59
2023-05-10T01:30:13.635Z,15.67
2023-05-10T01:30:57.611Z,15.71
2023-05-10T01:31:56.574Z,15.77
2023-05-10T01:32:56.630Z,15.86
2023-05-10T01:33:56.526Z,16.06
2023-05-10T01:34:56.532Z,16.17
2023-05-10T01:35:56.506Z,15.98
2023-05-10T01:36:56.525Z,15.97
2023-05-10T01:37:56.503Z,16.23
2023-05-10T01:38:56.507Z,16.20
2023-05-10T01:39:56.501Z,16.35
2023-05-10T01:40:56.471Z,16.45
2023-05-10T01:41:56.483Z,16.09
2023-05-10T01:42:56.465Z,16.62
2023-05-10T01:43:56.468Z,16.52
2023-05-10T01:44:56.478Z,15.98
2023-05-10T01:45:56.434Z,16.50
2023-05-10T01:46:56.514Z,16.43
2023-05-10T01:47:56.473Z,16.71
2023-05-10T01:48:56.464Z,16.63
2023-05-10T01:49:56.448Z,16.84
2023-05-10T01:50:56.430Z,16.68
2023-05-10T01:51:56.443Z,16.97
2023-05-10T01:52:56.410Z,17.13
2023-05-10T01:53:56.439Z,16.90
2023-05-10T01:54:56.412Z,17.30
2023-05-10T01:55:56.409Z,17.06
2023-05-10T01:56:56.385Z,17.27
2023-05-10T01:57:56.395Z,17.22
2023-05-10T01:58:56.400Z,17.25
2023-05-10T01:59:56.375Z,17.55
2023-05-10T02:00:56.405Z,17.89
2023-05-10T02:01:56.353Z,17.81
2023-05-10T02:02:56.380Z,17.45
2023-05-10T02:03:56.416Z,17.39
2023-05-10T02:04:56.313Z,17.56
2023-05-10T02:05:56.334Z,17.60
2023-05-10T02:06:56.344Z,18.00
2023-05-10T02:07:56.352Z,17.40
2023-05-10T02:08:56.289Z,17.47
2023-05-10T02:09:56.297Z,17.73
2023-05-10T02:10:56.297Z,17.49
2023-05-10T02:11:56.307Z,17.86
2023-05-10T02:12:56.319Z,17.64
2023-05-10T02:13:56.309Z,17.90
2023-05-10T02:14:56.292Z,17.88
2023-05-10T02:15:56.237Z,17.76
2023-05-10T02:16:56.268Z,17.89
2023-05-10T02:17:56.273Z,17.69
2023-05-10T02:18:56.276Z,17.70
2023-05-10T02:19:56.222Z,18.19
2023-05-10T02:20:56.257Z,17.93
2023-05-10T02:21:56.235Z,18.18
2023-05-10T02:22:56.211Z,17.74
2023-05-10T02:23:56.202Z,17.87
2023-05-10T02:24:56.198Z,17.74
2023-05-10T02:25:56.203Z,17.53
2023-05-10T02:26:56.238Z,17.64
2023-05-10T02:27:56.203Z,17.87
2023-05-10T02:28:56.204Z,17.70
2023-05-10T02:29:56.171Z,17.56
2023-05-10T02:30:56.142Z,17.52
2023-05-10T02:31:56.292Z,17.32
2023-05-10T02:32:56.168Z,17.34
2023-05-10T02:33:56.156Z,17.30
2023-05-10T02:34:56.159Z,17.50
2023-05-10T02:35:56.145Z,17.22
2023-05-10T02:36:56.144Z,17.34
2023-05-10T02:37:56.143Z,17.27
2023-05-10T02:38:56.157Z,16.58
2023-05-10T02:39:56.140Z,16.91
2023-05-10T02:40:56.109Z,16.81
2023-05-10T02:41:56.091Z,16.76
2023-05-10T02:42:56.125Z,16.43
2023-05-10T02:43:56.106Z,16.64
2023-05-10T02:44:56.093Z,16.53
2023-05-10T02:45:56.172Z,16.16
2023-05-10T02:46:56.100Z,16.26
2023-05-10T02:47:56.084Z,15.81
2023-05-10T02:48:56.066Z,15.51
2023-05-10T02:49:56.049Z,15.71
2023-05-10T02:50:56.032Z,15.24
2023-05-10T02:51:56.036Z,15.58
2023-05-10T02:52:56.044Z,15.61
2023-05-10T02:53:56.013Z,15.60
2023-05-10T02:54:56.020Z,15.52
2023-05-10T02:55:56.008Z,15.69
2023-05-10T02:56:56.016Z,16.21
2023-05-10T02:57:55.981Z,15.40
2023-05-10T02:58:55.982Z,15.53
2023-05-10T02:59:55.984Z,15.56
2023-05-10T03:00:55.991Z,15.13
2023-05-10T03:01:55.986Z,15.09
2023-05-10T03:02:56.043Z,15.10
2023-05-10T03:03:55.952Z,15.03
2023-05-10T03:04:56.011Z,15.14
2023-05-10T03:05:55.950Z,15.18
2023-05-10T03:06:55.956Z,15.13
2023-05-10T03:07:55.967Z,15.10
2023-05-10T03:08:55.959Z,14.80
2023-05-10T03:09:55.943Z,15.12
2023-05-10T03:10:55.959Z,14.94
2023-05-10T03:11:55.962Z,14.90
2023-05-10T03:12:55.999Z,14.97
2023-05-10T03:13:56.651Z,15.03
2023-05-10T03:14:55.943Z,14.82
2023-05-10T03:15:55.946Z,14.63
2023-05-10T03:16:55.934Z,14.57
2023-05-10T03:17:55.962Z,14.89
2023-05-10T03:18:55.920Z,14.99
2023-05-10T03:19:55.973Z,14.95
2023-05-10T03:20:55.968Z,14.68
2023-05-10T03:21:55.928Z,14.88
2023-05-10T03:22:55.980Z,14.84
2023-05-10T03:23:55.959Z,14.85
2023-05-10T03:24:55.930Z,14.62
2023-05-10T03:25:55.956Z,14.55
2023-05-10T03:26:55.929Z,14.64
2023-05-10T03:27:55.915Z,14.47
2023-05-10T03:28:55.981Z,14.75
2023-05-10T03:29:55.950Z,14.60
2023-05-10T03:30:55.929Z,14.69
2023-05-10T03:31:55.993Z,14.85
2023-05-10T03:32:55.956Z,14.62
2023-05-10T03:33:55.944Z,14.81
2023-05-10T03:34:55.921Z,14.39
2023-05-10T03:35:55.916Z,14.76
2023-05-10T03:36:55.913Z,14.65
2023-05-10T03:37:55.877Z,14.75
2023-05-10T03:38:55.881Z,14.54
2023-05-10T03:39:55.908Z,14.80
2023-05-10T03:40:55.872Z,14.72
2023-05-10T03:41:55.871Z,14.93
2023-05-10T03:42:55.883Z,14.49
2023-05-10T03:43:55.938Z,14.09
2023-05-10T03:44:55.885Z,14.11
2023-05-10T03:45:55.895Z,14.18
2023-05-10T03:46:55.903Z,14.34
2023-05-10T03:47:55.883Z,14.03
2023-05-10T03:48:55.857Z,14.27
2023-05-10T03:49:55.852Z,14.19
2023-05-10T03:50:55.891Z,14.01
2023-05-10T03:51:55.845Z,14.39
2023-05-10T03:52:55.867Z,14.24
2023-05-10T03:53:55.865Z,13.89
2023-05-10T03:54:55.865Z,13.83
2023-05-10T03:55:55.863Z,14.17
2023-05-10T03:56:55.866Z,13.95
2023-05-10T03:57:55.827Z,13.74
2023-05-10T03:58:55.840Z,13.81
2023-05-10T03:59:55.857Z,13.33
2023-05-10T04:00:55.814Z,13.27
2023-05-10T04:01:55.858Z,13.48
2023-05-10T04:02:55.886Z,13.56
2023-05-10T04:03:55.852Z,13.32
2023-05-10T04:04:55.845Z,13.30
2023-05-10T04:05:55.854Z,13.22
2023-05-10T04:06:55.833Z,13.20
2023-05-10T04:07:55.841Z,13.31
2023-05-10T04:08:55.831Z,13.39
2023-05-10T04:09:55.869Z,13.44
2023-05-10T04:10:55.831Z,13.35
2023-05-10T04:11:55.860Z,13.32
2023-05-10T04:12:55.851Z,13.16
2023-05-10T04:13:55.804Z,13.13
2023-05-10T04:14:55.846Z,13.04
2023-05-10T04:15:55.863Z,12.68
2023-05-10T04:16:55.870Z,12.80
2023-05-10T04:17:55.877Z,12.71
2023-05-10T04:18:55.802Z,12.75
2023-05-10T04:19:55.846Z,12.57
2023-05-10T04:20:56.169Z,12.33
2023-05-10T04:21:56.241Z,12.72
2023-05-10T04:22:55.922Z,12.43
2023-05-10T04:23:55.956Z,12.40
2023-05-10T04:24:56.033Z,12.61
2023-05-10T04:25:56.064Z,12.44
2023-05-10T04:26:57.765Z,12.45
2023-05-10T04:27:56.160Z,12.13
2023-05-10T04:28:56.145Z,12.33
2023-05-10T04:29:56.185Z,12.54
2023-05-10T04:30:56.161Z,12.43
2023-05-10T04:31:56.143Z,12.07
2023-05-10T04:32:56.202Z,12.08
2023-05-10T04:33:56.156Z,12.11
2023-05-10T04:34:56.127Z,11.99
2023-05-10T04:35:56.115Z,12.14
2023-05-10T04:36:56.104Z,12.09
2023-05-10T04:37:56.136Z,12.02
2023-05-10T04:38:56.145Z,11.87
2023-05-10T04:39:56.125Z,11.77
2023-05-10T04:40:56.141Z,11.71
2023-05-10T04:41:56.118Z,11.68
2023-05-10T04:42:56.147Z,11.48
2023-05-10T04:43:56.110Z,11.31
2023-05-10T04:44:56.105Z,11.35
2023-05-10T04:45:56.097Z,11.21
2023-05-10T04:46:56.101Z,10.86
2023-05-10T04:47:56.165Z,10.94
2023-05-10T04:48:56.112Z,10.91
2023-05-10T04:49:56.125Z,11.20
2023-05-10T04:50:56.092Z,11.15
2023-05-10T04:51:56.098Z,11.15
2023-05-10T04:52:56.107Z,11.20
2023-05-10T04:54:05.286Z,11.15
2023-05-10T04:54:57.089Z,11.18
2023-05-10T04:55:56.079Z,11.20
2023-05-10T04:56:56.063Z,11.18
2023-05-10T04:57:56.092Z,11.15
2023-05-10T04:58:56.077Z,11.21
2023-05-10T04:59:56.038Z,11.12
2023-05-10T05:01:03.018Z,11.18
2023-05-10T05:01:56.150Z,11.21
2023-05-10T05:02:56.114Z,11.27
2023-05-10T05:03:56.167Z,11.32
2023-05-10T05:04:56.016Z,11.42
2023-05-10T05:05:56.001Z,11.63
2023-05-10T05:06:55.972Z,11.74
2023-05-10T05:07:55.974Z,11.86
2023-05-10T05:08:55.996Z,11.56
2023-05-10T05:09:56.007Z,11.90
2023-05-10T05:10:55.980Z,11.80
2023-05-10T05:11:55.970Z,11.47
2023-05-10T05:12:55.972Z,11.55
2023-05-10T05:13:55.956Z,11.57
2023-05-10T05:14:55.925Z,11.48
2023-05-10T05:15:55.946Z,11.14
2023-05-10T05:16:55.933Z,11.31
2023-05-10T05:17:56.041Z,11.34
2023-05-10T05:18:55.915Z,11.29
2023-05-10T05:19:55.900Z,10.97
2023-05-10T05:20:55.908Z,10.14
2023-05-10T05:21:55.893Z,8.05
2023-05-10T05:22:55.878Z,7.03
2023-05-10T05:23:55.863Z,6.70
2023-05-10T05:24:55.889Z,6.48
2023-05-10T05:25:55.865Z,6.14
2023-05-10T05:26:55.884Z,6.07
2023-05-10T05:27:55.842Z,6.24
2023-05-10T05:28:55.834Z,6.05
2023-05-10T05:29:55.837Z,6.10
2023-05-10T05:30:55.847Z,6.54
2023-05-10T05:31:55.951Z,6.94
2023-05-10T05:32:55.852Z,7.32
2023-05-10T05:33:56.207Z,7.76
2023-05-10T05:34:55.803Z,8.27
2023-05-10T05:35:55.796Z,8.37
2023-05-10T05:36:55.767Z,8.70
2023-05-10T05:37:55.770Z,8.59
2023-05-10T05:38:56.227Z,9.90
2023-05-10T05:39:55.755Z,13.73
2023-05-10T05:40:55.792Z,15.35
2023-05-10T05:41:55.750Z,16.10
2023-05-10T05:42:55.771Z,16.66
2023-05-10T05:43:56.209Z,17.30
2023-05-10T05:44:55.738Z,20.89
2023-05-10T05:46:02.784Z,20.17
2023-05-10T05:46:55.746Z,20.23
2023-05-10T05:47:55.832Z,20.46
2023-05-10T05:48:55.750Z,21.11
2023-05-10T05:49:55.718Z,22.29
2023-05-10T05:50:55.693Z,24.31
2023-05-10T05:51:55.681Z,26.06
2023-05-10T05:52:55.711Z,27.31
2023-05-10T05:53:55.752Z,28.17
2023-05-10T05:54:55.667Z,29.84
2023-05-10T05:55:55.688Z,30.24
2023-05-10T05:56:55.670Z,29.90
2023-05-10T05:57:55.631Z,32.26
2023-05-10T05:58:55.638Z,33.77
2023-05-10T05:59:55.613Z,34.10
2023-05-10T06:00:55.624Z,34.94
2023-05-10T06:01:55.730Z,35.57
2023-05-10T06:02:55.678Z,34.71
2023-05-10T06:03:55.711Z,33.32
2023-05-10T06:04:55.635Z,32.43
2023-05-10T06:05:55.597Z,33.74
2023-05-10T06:06:55.606Z,37.44
2023-05-10T06:07:55.577Z,36.96
2023-05-10T06:08:55.577Z,36.03
2023-05-10T06:09:55.567Z,36.39
2023-05-10T06:10:55.562Z,36.88
2023-05-10T06:11:55.548Z,37.57
2023-05-10T06:12:55.616Z,38.17
2023-05-10T06:13:55.562Z,39.01
2023-05-10T06:14:55.542Z,40.20
2023-05-10T06:15:55.520Z,40.48
2023-05-10T06:16:55.617Z,42.71
2023-05-10T06:17:56.210Z,42.80
2023-05-10T06:18:55.508Z,44.37
2023-05-10T06:19:55.616Z,46.26
2023-05-10T06:20:55.569Z,47.47
2023-05-10T06:21:55.601Z,48.51
2023-05-10T06:22:55.640Z,50.19
2023-05-10T06:23:55.680Z,50.82
2023-05-10T06:24:55.712Z,51.38
2023-05-10T06:25:55.729Z,52.66
2023-05-10T06:26:55.775Z,53.12
2023-05-10T06:27:55.792Z,54.06
2023-05-10T06:28:55.814Z,56.77
2023-05-10T06:30:02.068Z,56.87
2023-05-10T06:30:56.813Z,57.01
2023-05-10T06:31:55.966Z,57.47
2023-05-10T06:32:55.845Z,57.95
2023-05-10T06:33:56.739Z,58.49
2023-05-10T06:34:55.833Z,60.66
2023-05-10T06:35:55.820Z,60.41
2023-05-10T06:36:55.885Z,62.68
2023-05-10T06:37:55.898Z,53.96
2023-05-10T06:38:55.927Z,37.97
2023-05-10T06:39:56.007Z,30.97
2023-05-10T06:40:55.975Z,27.62
2023-05-10T06:41:55.991Z,29.80
2023-05-10T06:42:56.022Z,34.76
2023-05-10T06:43:55.980Z,39.40
2023-05-10T06:44:55.997Z,41.07
2023-05-10T06:45:56.050Z,42.02
2023-05-10T06:46:56.123Z,43.21
2023-05-10T06:47:56.191Z,42.92
2023-05-10T06:48:56.223Z,44.81
2023-05-10T06:49:56.781Z,44.75
2023-05-10T06:50:56.314Z,45.21
2023-05-10T06:51:56.330Z,45.25
2023-05-10T06:52:56.401Z,46.35
2023-05-10T06:53:56.456Z,47.31
2023-05-10T06:54:56.469Z,47.24
2023-05-10T06:55:56.493Z,47.65
2023-05-10T06:56:56.983Z,48.36
2023-05-10T06:57:56.732Z,48.92
2023-05-10T06:58:56.595Z,50.25
2023-05-10T06:59:56.586Z,50.28
2023-05-10T07:00:56.603Z,50.37
2023-05-10T07:01:56.597Z,51.47
2023-05-10T07:02:56.693Z,53.74
2023-05-10T07:03:56.625Z,54.14
2023-05-10T07:04:56.807Z,55.54
2023-05-10T07:05:56.706Z,57.12
2023-05-10T07:06:56.752Z,57.35
2023-05-10T07:07:56.758Z,57.62
2023-05-10T07:08:56.792Z,57.44
2023-05-10T07:09:56.792Z,56.58
2023-05-10T07:10:56.818Z,55.79
2023-05-10T07:11:56.805Z,55.86
2023-05-10T07:12:56.945Z,54.66
2023-05-10T07:13:57.081Z,54.45
2023-05-10T07:14:57.285Z,54.01
2023-05-10T07:15:56.949Z,39.02
2023-05-10T07:16:56.979Z,29.95
2023-05-10T07:17:57.092Z,25.10
2023-05-10T07:18:57.081Z,22.94
2023-05-10T07:19:57.115Z,21.71
2023-05-10T07:20:57.143Z,20.95
2023-05-10T07:21:57.123Z,18.37
2023-05-10T07:22:57.109Z,16.88
2023-05-10T07:23:57.148Z,15.91
2023-05-10T07:24:57.210Z,15.58
2023-05-10T07:25:57.242Z,15.24
2023-05-10T07:26:57.251Z,14.63
2023-05-10T07:27:57.241Z,14.20
2023-05-10T07:28:57.303Z,13.08
2023-05-10T07:29:57.343Z,12.73
2023-05-10T07:30:57.434Z,11.88
2023-05-10T07:31:58.828Z,12.75
2023-05-10T07:32:57.431Z,12.49
2023-05-10T07:33:57.449Z,12.48
2023-05-10T07:34:57.531Z,12.16
2023-05-10T07:35:57.554Z,12.20
2023-05-10T07:36:57.662Z,13.51
2023-05-10T07:37:57.718Z,13.53
2023-05-10T07:38:57.765Z,12.53
2023-05-10T07:39:57.851Z,11.79
2023-05-10T07:40:57.872Z,11.55
2023-05-10T07:41:57.982Z,11.80
2023-05-10T07:42:57.958Z,10.80
2023-05-10T07:43:58.006Z,11.39
2023-05-10T07:44:58.099Z,11.34
2023-05-10T07:45:58.123Z,10.48
2023-05-10T07:46:58.040Z,9.66
2023-05-10T07:47:58.087Z,9.92
2023-05-10T07:48:58.111Z,9.42
2023-05-10T07:49:58.162Z,9.06
2023-05-10T07:50:58.227Z,9.68
2023-05-10T07:51:58.251Z,10.19
2023-05-10T07:52:58.290Z,10.20
2023-05-10T07:53:58.387Z,10.59
2023-05-10T07:54:58.394Z,10.57
2023-05-10T07:55:58.393Z,10.96
2023-05-10T07:56:58.473Z,11.05
2023-05-10T07:57:58.475Z,11.27
2023-05-10T07:58:58.483Z,11.39
2023-05-10T07:59:58.801Z,11.49
2023-05-10T08:00:58.492Z,11.21
2023-05-10T08:01:58.545Z,11.44
2023-05-10T08:02:58.653Z,11.36
2023-05-10T08:03:58.628Z,11.18
2023-05-10T08:04:58.574Z,11.27
2023-05-10T08:05:58.562Z,11.44
2023-05-10T08:06:58.564Z,11.67
2023-05-10T08:07:58.562Z,11.75
2023-05-10T08:08:58.641Z,11.68
2023-05-10T08:09:58.613Z,11.60
2023-05-10T08:10:58.612Z,11.65
2023-05-10T08:11:58.591Z,11.65
2023-05-10T08:12:58.611Z,11.74
2023-05-10T08:13:58.633Z,11.62
2023-05-10T08:14:58.621Z,11.72
2023-05-10T08:15:58.667Z,11.81
2023-05-10T08:16:58.597Z,11.72
2023-05-10T08:17:58.667Z,11.76
2023-05-10T08:18:58.640Z,11.70
2023-05-10T08:19:58.589Z,12.00
2023-05-10T08:20:58.632Z,11.99
2023-05-10T08:21:59.320Z,11.88
2023-05-10T08:22:58.581Z,12.02
2023-05-10T08:23:58.572Z,11.93
2023-05-10T08:24:58.574Z,11.82
2023-05-10T08:25:58.595Z,11.87
2023-05-10T08:26:58.613Z,11.98
2023-05-10T08:27:58.563Z,11.87
2023-05-10T08:28:58.578Z,11.67
2023-05-10T08:29:58.679Z,11.86
2023-05-10T08:30:58.837Z,11.86
2023-05-10T08:31:58.554Z,12.00
2023-05-10T08:32:58.680Z,11.85
2023-05-10T08:33:58.666Z,11.87
2023-05-10T08:34:58.596Z,11.95
2023-05-10T08:35:58.844Z,11.80
2023-05-10T08:36:58.587Z,11.70
2023-05-10T08:37:58.621Z,11.49
2023-05-10T08:38:58.606Z,11.09
2023-05-10T08:39:58.589Z,11.50
2023-05-10T08:40:58.849Z,11.61
2023-05-10T08:41:58.607Z,11.33
2023-05-10T08:42:58.628Z,11.29
2023-05-10T08:43:58.585Z,11.19
2023-05-10T08:44:58.586Z,11.20
2023-05-10T08:45:58.618Z,10.97
2023-05-10T08:46:58.677Z,10.99
2023-05-10T08:47:58.614Z,11.12
2023-05-10T08:48:58.560Z,10.76
2023-05-10T08:49:58.549Z,10.46
2023-05-10T08:50:58.810Z,10.52
2023-05-10T08:51:58.595Z,10.21
2023-05-10T08:52:58.604Z,10.38
2023-05-10T08:53:58.625Z,10.32
2023-05-10T08:54:58.583Z,10.30
2023-05-10T08:55:58.611Z,10.19
2023-05-10T08:56:58.588Z,9.89
2023-05-10T08:57:58.561Z,9.85
2023-05-10T08:58:58.589Z,9.72
2023-05-10T08:59:58.595Z,9.94
2023-05-10T09:00:58.850Z,9.80
2023-05-10T09:01:58.576Z,9.94
2023-05-10T09:02:58.605Z,9.66
2023-05-10T09:03:58.682Z,9.44
2023-05-10T09:04:58.732Z,9.31
2023-05-10T09:05:58.833Z,9.23
2023-05-10T09:06:58.578Z,9.25
2023-05-10T09:07:58.608Z,9.37
2023-05-10T09:08:58.552Z,9.11
2023-05-10T09:09:58.578Z,9.41
2023-05-10T09:10:58.840Z,9.34
2023-05-10T09:11:58.623Z,9.07
2023-05-10T09:12:59.402Z,8.98
2023-05-10T09:13:58.542Z,8.93
2023-05-10T09:14:58.602Z,8.87
2023-05-10T09:16:02.260Z,8.78
2023-05-10T09:16:59.651Z,8.78
2023-05-10T09:17:58.585Z,8.42
2023-05-10T09:18:58.614Z,8.26
2023-05-10T09:19:58.527Z,7.97
2023-05-10T09:20:58.546Z,8.16
2023-05-10T09:21:58.542Z,7.97
2023-05-10T09:22:58.497Z,7.71
2023-05-10T09:23:58.521Z,7.89
2023-05-10T09:24:58.484Z,7.64
2023-05-10T09:25:58.491Z,7.73
2023-05-10T09:26:58.520Z,7.82
2023-05-10T09:27:58.477Z,7.52
2023-05-10T09:28:58.520Z,7.48
2023-05-10T09:29:58.459Z,7.41
2023-05-10T09:30:58.895Z,7.35
2023-05-10T09:31:58.472Z,7.41
2023-05-10T09:32:58.529Z,7.53
2023-05-10T09:33:58.450Z,7.60
2023-05-10T09:34:58.486Z,9.00
2023-05-10T09:35:58.482Z,6.03
2023-05-10T09:36:58.426Z,6.68
2023-05-10T09:37:58.443Z,6.45
2023-05-10T09:38:58.464Z,5.92
2023-05-10T09:39:58.476Z,5.30
2023-05-10T09:40:58.833Z,5.36
2023-05-10T09:41:58.519Z,5.25
2023-05-10T09:42:58.520Z,5.37
2023-05-10T09:43:58.594Z,6.06
2023-05-10T09:44:58.543Z,6.30
2023-05-10T09:45:58.869Z,7.99
2023-05-10T09:46:58.615Z,8.87
2023-05-10T09:47:58.690Z,10.25
2023-05-10T09:48:58.732Z,11.47
2023-05-10T09:49:58.752Z,12.87
2023-05-10T09:50:58.822Z,14.32
2023-05-10T09:51:58.791Z,15.68
2023-05-10T09:52:58.800Z,17.51
2023-05-10T09:53:58.851Z,18.74
2023-05-10T09:54:58.792Z,21.89
2023-05-10T09:55:58.850Z,23.34
2023-05-10T09:56:58.919Z,24.74
2023-05-10T09:57:58.970Z,25.87
2023-05-10T09:58:59.004Z,27.37
2023-05-10T09:59:59.058Z,28.63
2023-05-10T10:00:59.368Z,30.30
2023-05-10T10:01:59.298Z,31.57
2023-05-10T10:02:59.225Z,31.97
2023-05-10T10:03:59.178Z,33.58
2023-05-10T10:04:59.249Z,35.03
2023-05-10T10:05:59.256Z,36.32
2023-05-10T10:06:59.217Z,37.73
2023-05-10T10:07:59.268Z,39.16
2023-05-10T10:08:59.239Z,39.88
2023-05-10T10:09:59.268Z,40.86
2023-05-10T10:10:59.275Z,42.32
2023-05-10T10:11:59.281Z,43.29
2023-05-10T10:12:59.312Z,44.69
2023-05-10T10:13:59.316Z,47.19
2023-05-10T10:14:59.324Z,52.66
2023-05-10T10:15:59.413Z,67.84
2023-05-10T10:17:08.358Z,74.77
2023-05-10T10:18:00.410Z,75.00
2023-05-10T10:18:59.414Z,76.28
2023-05-10T10:19:59.304Z,79.02
2023-05-10T10:20:59.303Z,81.73
2023-05-10T10:21:59.320Z,87.69
2023-05-10T10:22:59.281Z,88.05
2023-05-10T10:23:59.266Z,91.31
2023-05-10T10:24:59.281Z,92.46
2023-05-10T10:25:59.250Z,91.89
2023-05-10T10:26:59.361Z,92.66
2023-05-10T10:27:59.247Z,91.84
2023-05-10T10:28:59.244Z,91.34
2023-05-10T10:29:59.247Z,90.27
2023-05-10T10:30:59.284Z,86.94
2023-05-10T10:31:59.292Z,80.63
2023-05-10T10:32:59.297Z,47.81
2023-05-10T10:33:59.192Z,44.83
2023-05-10T10:34:59.201Z,37.15
2023-05-10T10:35:59.162Z,29.91
2023-05-10T10:36:59.384Z,22.76
2023-05-10T10:37:59.187Z,12.14
2023-05-10T10:38:59.159Z,8.37
2023-05-10T10:39:59.356Z,6.43
2023-05-10T10:40:59.199Z,4.97
2023-05-10T10:41:59.402Z,3.81
2023-05-10T10:42:59.265Z,3.48
2023-05-10T10:43:59.279Z,3.53
2023-05-10T10:44:59.339Z,3.15
2023-05-10T10:45:59.371Z,3.03
2023-05-10T10:46:59.516Z,2.73
2023-05-10T10:47:59.501Z,2.59
2023-05-10T10:48:59.504Z,2.50
2023-05-10T10:49:59.472Z,2.40
2023-05-10T10:50:59.429Z,2.17
2023-05-10T10:51:59.463Z,2.13
2023-05-10T10:52:59.534Z,1.99
2023-05-10T10:53:59.522Z,1.75
2023-05-10T10:54:59.540Z,1.74
2023-05-10T10:55:59.616Z,1.72
2023-05-10T10:56:59.563Z,1.73
2023-05-10T10:57:59.606Z,1.69
2023-05-10T10:58:59.605Z,1.69
2023-05-10T10:59:59.656Z,1.57
2023-05-10T11:00:59.715Z,1.46
2023-05-10T11:01:59.733Z,1.42
2023-05-10T11:02:59.802Z,1.29
2023-05-10T11:03:59.793Z,1.26
2023-05-10T11:04:59.810Z,1.33
2023-05-10T11:05:59.808Z,1.42
2023-05-10T11:07:00.819Z,1.42
2023-05-10T11:07:59.799Z,1.43
2023-05-10T11:08:59.786Z,1.42
2023-05-10T11:09:59.817Z,1.42
2023-05-10T11:10:59.786Z,1.34
2023-05-10T11:11:59.833Z,1.16
2023-05-10T11:12:59.767Z,1.18
2023-05-10T11:13:59.823Z,0.95
2023-05-10T11:14:59.843Z,0.92
2023-05-10T11:15:59.740Z,0.98
2023-05-10T11:17:00.523Z,0.95
2023-05-10T11:17:59.808Z,0.94
2023-05-10T11:18:59.775Z,1.08
2023-05-10T11:19:59.696Z,1.15
2023-05-10T11:20:59.757Z,1.20
2023-05-10T11:21:59.716Z,1.19
2023-05-10T11:22:59.714Z,1.11
2023-05-10T11:23:59.761Z,0.99
2023-05-10T11:24:59.839Z,1.02
2023-05-10T11:25:59.782Z,1.07
2023-05-10T11:26:59.799Z,1.20
2023-05-10T11:27:59.945Z,1.75
2023-05-10T11:29:00.206Z,2.06
2023-05-10T11:30:00.390Z,2.34
2023-05-10T11:30:59.939Z,2.39
2023-05-10T11:32:00.008Z,2.39
2023-05-10T11:33:00.593Z,2.45
2023-05-10T11:34:00.007Z,2.45
2023-05-10T11:35:00.042Z,2.66
2023-05-10T11:36:00.049Z,2.68
2023-05-10T11:37:00.120Z,2.91
2023-05-10T11:38:00.461Z,2.94
2023-05-10T11:39:00.086Z,2.93
2023-05-10T11:40:00.033Z,2.70
2023-05-10T11:41:00.032Z,2.74
2023-05-10T11:42:00.015Z,2.73
2023-05-10T11:43:00.051Z,2.88
2023-05-10T11:44:00.024Z,2.86
2023-05-10T11:44:59.984Z,2.79
2023-05-10T11:46:00.068Z,2.83
2023-05-10T11:47:00.003Z,2.89
2023-05-10T11:48:00.094Z,3.06
2023-05-10T11:49:00.052Z,3.26
2023-05-10T11:50:00.125Z,3.13
2023-05-10T11:51:00.175Z,3.15
2023-05-10T11:52:00.173Z,3.12
2023-05-10T11:53:00.238Z,3.05
2023-05-10T11:54:00.250Z,2.89
2023-05-10T11:55:00.316Z,2.96
2023-05-10T11:56:00.401Z,2.68
2023-05-10T11:57:00.391Z,2.52
2023-05-10T11:58:00.467Z,2.35
2023-05-10T11:59:00.500Z,2.19
2023-05-10T12:00:00.560Z,2.02
2023-05-10T12:01:00.648Z,1.94
2023-05-10T12:02:00.660Z,1.90
2023-05-10T12:03:00.831Z,1.83
2023-05-10T12:04:01.059Z,1.82
2023-05-10T12:05:00.921Z,1.86
2023-05-10T12:06:00.882Z,1.86
2023-05-10T12:07:00.918Z,1.78
2023-05-10T12:08:00.973Z,1.89
2023-05-10T12:09:01.013Z,1.96
2023-05-10T12:10:01.093Z,2.11
2023-05-10T12:11:01.084Z,2.37
2023-05-10T12:12:01.130Z,2.49
2023-05-10T12:13:01.161Z,2.52
2023-05-10T12:14:01.131Z,2.61
2023-05-10T12:15:01.132Z,2.50
2023-05-10T12:16:01.210Z,2.35
2023-05-10T12:17:01.169Z,2.23
2023-05-10T12:18:01.224Z,3.14
2023-05-10T12:19:01.205Z,3.75
2023-05-10T12:20:01.213Z,4.46
2023-05-10T12:21:01.267Z,5.12
2023-05-10T12:22:01.293Z,5.53
2023-05-10T12:23:01.327Z,6.10
2023-05-10T12:24:01.377Z,6.51
2023-05-10T12:25:01.358Z,7.15
2023-05-10T12:26:01.375Z,8.49
2023-05-10T12:27:01.354Z,9.93
2023-05-10T12:28:01.396Z,9.86
2023-05-10T12:29:01.380Z,9.94
2023-05-10T12:30:01.460Z,10.33
2023-05-10T12:31:01.514Z,10.15
2023-05-10T12:32:01.607Z,10.84
2023-05-10T12:33:01.667Z,10.61
2023-05-10T12:34:01.671Z,10.74
2023-05-10T12:35:01.720Z,10.73
2023-05-10T12:36:01.762Z,10.77
2023-05-10T12:37:01.834Z,10.54
2023-05-10T12:38:01.860Z,10.82
2023-05-10T12:39:01.866Z,10.94
2023-05-10T12:40:01.908Z,10.83
2023-05-10T12:41:01.989Z,11.00
2023-05-10T12:42:01.993Z,10.94
2023-05-10T12:43:02.114Z,10.96
2023-05-10T12:44:02.065Z,11.21
2023-05-10T12:45:02.101Z,11.53
2023-05-10T12:46:02.153Z,11.16
2023-05-10T12:47:02.147Z,11.48
2023-05-10T12:48:02.232Z,11.82
2023-05-10T12:49:08.939Z,11.88
2023-05-10T12:50:03.190Z,11.90
2023-05-10T12:51:02.160Z,11.86
2023-05-10T12:52:02.200Z,11.77
2023-05-10T12:53:02.147Z,11.78
2023-05-10T12:54:02.153Z,11.81
2023-05-10T12:55:02.179Z,11.97
2023-05-10T12:56:02.145Z,11.43
2023-05-10T12:57:02.130Z,12.37
2023-05-10T12:58:02.152Z,12.27
2023-05-10T12:59:02.118Z,12.23